createdAt,value
2023-12-18T00:00:58.314Z,1140.00
2023-12-18T00:01:58.270Z,1141.00
2023-12-18T00:02:58.329Z,1142.00
2023-12-18T00:03:58.403Z,1142.00
2023-12-18T00:04:58.322Z,1143.00
2023-12-18T00:05:58.317Z,1142.00
2023-12-18T00:06:58.328Z,1143.00
2023-12-18T00:07:58.347Z,1141.00
2023-12-18T00:08:58.347Z,1141.00
2023-12-18T00:09:58.367Z,1145.00
2023-12-18T00:10:58.368Z,1143.00
2023-12-18T00:11:58.386Z,1145.00
2023-12-18T00:12:58.395Z,1146.00
2023-12-18T00:13:58.415Z,1144.00
2023-12-18T00:14:58.428Z,1144.00
2023-12-18T00:15:58.428Z,1144.00
2023-12-18T00:16:58.452Z,1146.00
2023-12-18T00:17:58.515Z,1145.00
2023-12-18T00:18:58.575Z,1141.00
2023-12-18T00:19:58.476Z,1140.00
2023-12-18T00:20:58.519Z,1141.00
2023-12-18T00:21:58.504Z,1141.00
2023-12-18T00:22:58.531Z,1141.00
2023-12-18T00:23:58.539Z,1140.00
2023-12-18T00:24:58.554Z,1142.00
2023-12-18T00:25:58.566Z,1142.00
2023-12-18T00:26:58.581Z,1141.00
2023-12-18T00:27:58.641Z,1141.00
2023-12-18T00:28:58.617Z,1143.00
2023-12-18T00:29:58.603Z,1141.00
2023-12-18T00:30:58.754Z,1141.00
2023-12-18T00:31:58.629Z,1139.00
2023-12-18T00:32:58.666Z,1142.00
2023-12-18T00:33:58.784Z,1144.00
2023-12-18T00:34:58.694Z,1142.00
2023-12-18T00:35:58.663Z,1140.00
2023-12-18T00:36:58.669Z,1138.00
2023-12-18T00:37:58.694Z,1138.00
2023-12-18T00:38:58.719Z,1135.00
2023-12-18T00:39:58.712Z,1133.00
2023-12-18T00:40:58.731Z,1132.00
2023-12-18T00:41:58.738Z,1134.00
2023-12-18T00:42:58.750Z,1135.00
2023-12-18T00:43:58.761Z,1133.00
2023-12-18T00:44:58.786Z,1134.00
2023-12-18T00:45:58.810Z,1135.00
2023-12-18T00:46:58.780Z,1135.00
2023-12-18T00:47:58.852Z,1134.00
2023-12-18T00:48:58.897Z,1137.00
2023-12-18T00:49:58.911Z,1141.00
2023-12-18T00:50:58.812Z,1145.00
2023-12-18T00:51:58.825Z,1146.00
2023-12-18T00:52:58.825Z,1143.00
2023-12-18T00:53:58.838Z,1141.00
2023-12-18T00:54:58.836Z,1142.00
2023-12-18T00:55:58.892Z,1141.00
2023-12-18T00:56:58.859Z,1135.00
2023-12-18T00:57:58.927Z,1129.00
2023-12-18T00:58:58.892Z,1125.00
2023-12-18T00:59:58.893Z,1123.00
2023-12-18T01:00:58.962Z,1123.00
2023-12-18T01:01:58.961Z,1123.00
2023-12-18T01:02:58.915Z,1125.00
2023-12-18T01:03:59.004Z,1122.00
2023-12-18T01:04:58.971Z,1119.00
2023-12-18T01:05:58.955Z,1118.00
2023-12-18T01:06:58.968Z,1121.00
2023-12-18T01:07:58.988Z,1122.00
2023-12-18T01:08:58.988Z,1125.00
2023-12-18T01:09:59.001Z,1128.00
2023-12-18T01:10:59.017Z,1130.00
2023-12-18T01:11:59.009Z,1132.00
2023-12-18T01:12:59.029Z,1133.00
2023-12-18T01:13:59.090Z,1133.00
2023-12-18T01:14:59.049Z,1133.00
2023-12-18T01:15:59.037Z,1134.00
2023-12-18T01:16:59.074Z,1133.00
2023-12-18T01:17:59.140Z,1132.00
2023-12-18T01:18:59.269Z,1134.00
2023-12-18T01:19:59.078Z,1135.00
2023-12-18T01:20:59.089Z,1136.00
2023-12-18T01:21:59.137Z,1136.00
2023-12-18T01:23:04.359Z,1135.00
2023-12-18T01:24:00.187Z,1134.00
2023-12-18T01:24:59.126Z,1134.00
2023-12-18T01:25:59.108Z,1131.00
2023-12-18T01:26:59.112Z,1129.00
2023-12-18T01:27:59.121Z,1128.00
2023-12-18T01:28:59.113Z,1127.00
2023-12-18T01:29:59.133Z,1128.00
2023-12-18T01:30:59.229Z,1128.00
2023-12-18T01:31:59.124Z,1126.00
2023-12-18T01:32:59.206Z,1127.00
2023-12-18T01:33:59.219Z,1129.00
2023-12-18T01:34:59.120Z,1127.00
2023-12-18T01:35:59.136Z,1128.00
2023-12-18T01:36:59.136Z,1130.00
2023-12-18T01:37:59.120Z,1135.00
2023-12-18T01:38:59.142Z,1135.00
2023-12-18T01:39:59.138Z,1133.00
2023-12-18T01:40:59.127Z,1131.00
2023-12-18T01:41:59.137Z,1129.00
2023-12-18T01:42:59.129Z,1131.00
2023-12-18T01:43:59.160Z,1129.00
2023-12-18T01:44:59.133Z,1127.00
2023-12-18T01:45:59.148Z,1130.00
2023-12-18T01:46:59.141Z,1130.00
2023-12-18T01:47:59.226Z,1133.00
2023-12-18T01:48:59.216Z,1136.00
2023-12-18T01:49:59.152Z,1135.00
2023-12-18T01:50:59.139Z,1134.00
2023-12-18T01:51:59.152Z,1132.00
2023-12-18T01:52:59.167Z,1133.00
2023-12-18T01:53:59.165Z,1132.00
2023-12-18T01:54:59.161Z,1129.00
2023-12-18T01:55:59.149Z,1129.00
2023-12-18T01:56:59.152Z,1130.00
2023-12-18T01:57:59.154Z,1131.00
2023-12-18T01:58:59.182Z,1134.00
2023-12-18T01:59:59.159Z,1134.00
2023-12-18T02:00:59.351Z,1133.00
2023-12-18T02:01:59.175Z,1133.00
2023-12-18T02:02:59.248Z,1132.00
2023-12-18T02:03:59.285Z,1131.00
2023-12-18T02:04:59.176Z,1129.00
2023-12-18T02:05:59.157Z,1131.00
2023-12-18T02:06:59.162Z,1134.00
2023-12-18T02:07:59.180Z,1132.00
2023-12-18T02:08:59.195Z,1129.00
2023-12-18T02:09:59.165Z,1128.00
2023-12-18T02:10:59.160Z,1126.00
2023-12-18T02:11:59.165Z,1128.00
2023-12-18T02:12:59.176Z,1129.00
2023-12-18T02:13:59.187Z,1135.00
2023-12-18T02:14:59.170Z,1135.00
2023-12-18T02:15:59.160Z,1136.00
2023-12-18T02:16:59.168Z,1136.00
2023-12-18T02:17:59.217Z,1136.00
2023-12-18T02:18:59.229Z,1135.00
2023-12-18T02:19:59.179Z,1137.00
2023-12-18T02:20:59.179Z,1137.00
2023-12-18T02:21:59.233Z,1137.00
2023-12-18T02:22:59.178Z,1138.00
2023-12-18T02:23:59.189Z,1140.00
2023-12-18T02:24:59.198Z,1139.00
2023-12-18T02:25:59.211Z,1138.00
2023-12-18T02:26:59.206Z,1135.00
2023-12-18T02:27:59.188Z,1137.00
2023-12-18T02:28:59.181Z,1140.00
2023-12-18T02:29:59.203Z,1138.00
2023-12-18T02:30:59.343Z,1136.00
2023-12-18T02:31:59.216Z,1135.00
2023-12-18T02:32:59.342Z,1133.00
2023-12-18T02:33:59.397Z,1133.00
2023-12-18T02:34:59.415Z,1130.00
2023-12-18T02:35:59.262Z,1132.00
2023-12-18T02:36:59.273Z,1136.00
2023-12-18T02:37:59.288Z,1137.00
2023-12-18T02:38:59.299Z,1137.00
2023-12-18T02:39:59.302Z,1137.00
2023-12-18T02:40:59.312Z,1139.00
2023-12-18T02:41:59.381Z,1138.00
2023-12-18T02:42:59.397Z,1136.00
2023-12-18T02:43:59.349Z,1135.00
2023-12-18T02:44:59.337Z,1135.00
2023-12-18T02:45:59.366Z,1136.00
2023-12-18T02:46:59.372Z,1131.00
2023-12-18T02:47:59.423Z,1133.00
2023-12-18T02:48:59.485Z,1132.00
2023-12-18T02:49:59.401Z,1133.00
2023-12-18T02:50:59.396Z,1133.00
2023-12-18T02:51:59.400Z,1133.00
2023-12-18T02:52:59.420Z,1133.00
2023-12-18T02:53:59.442Z,1132.00
2023-12-18T02:54:59.448Z,1136.00
2023-12-18T02:55:59.460Z,1136.00
2023-12-18T02:56:59.464Z,1136.00
2023-12-18T02:57:59.481Z,1137.00
2023-12-18T02:58:59.498Z,1139.00
2023-12-18T02:59:59.495Z,1139.00
2023-12-18T03:00:59.529Z,1139.00
2023-12-18T03:01:59.510Z,1135.00
2023-12-18T03:02:59.553Z,1134.00
2023-12-18T03:03:59.645Z,1132.00
2023-12-18T03:04:59.604Z,1132.00
2023-12-18T03:05:59.564Z,1131.00
2023-12-18T03:06:59.579Z,1130.00
2023-12-18T03:07:59.578Z,1132.00
2023-12-18T03:08:59.581Z,1129.00
2023-12-18T03:09:59.602Z,1131.00
2023-12-18T03:10:59.596Z,1130.00
2023-12-18T03:11:59.629Z,1129.00
2023-12-18T03:12:59.619Z,1128.00
2023-12-18T03:13:59.630Z,1129.00
2023-12-18T03:14:59.643Z,1134.00
2023-12-18T03:15:59.685Z,1131.00
2023-12-18T03:16:59.663Z,1129.00
2023-12-18T03:17:59.742Z,1130.00
2023-12-18T03:18:59.781Z,1131.00
2023-12-18T03:19:59.683Z,1136.00
2023-12-18T03:20:59.705Z,1135.00
2023-12-18T03:21:59.699Z,1133.00
2023-12-18T03:22:59.708Z,1135.00
2023-12-18T03:23:59.731Z,1133.00
2023-12-18T03:24:59.726Z,1134.00
2023-12-18T03:25:59.741Z,1137.00
2023-12-18T03:26:59.755Z,1136.00
2023-12-18T03:27:59.753Z,1134.00
2023-12-18T03:28:59.805Z,1132.00
2023-12-18T03:29:59.788Z,1131.00
2023-12-18T03:30:59.887Z,1131.00
2023-12-18T03:31:59.792Z,1131.00
2023-12-18T03:32:59.847Z,1129.00
2023-12-18T03:33:59.907Z,1133.00
2023-12-18T03:34:59.811Z,1134.00
2023-12-18T03:35:59.827Z,1133.00
2023-12-18T03:36:59.838Z,1132.00
2023-12-18T03:37:59.866Z,1128.00
2023-12-18T03:38:59.869Z,1128.00
2023-12-18T03:39:59.867Z,1130.00
2023-12-18T03:40:59.894Z,1132.00
2023-12-18T03:41:59.883Z,1128.00
2023-12-18T03:42:59.885Z,1127.00
2023-12-18T03:43:59.904Z,1126.00
2023-12-18T03:44:59.918Z,1129.00
2023-12-18T03:45:59.921Z,1126.00
2023-12-18T03:46:59.927Z,1129.00
2023-12-18T03:47:59.976Z,1129.00
2023-12-18T03:49:00.052Z,1130.00
2023-12-18T03:50:00.034Z,1130.00
2023-12-18T03:50:59.960Z,1127.00
2023-12-18T03:51:59.948Z,1127.00
2023-12-18T03:52:59.958Z,1127.00
2023-12-18T03:53:59.958Z,1127.00
2023-12-18T03:54:59.961Z,1127.00
2023-12-18T03:55:59.968Z,1127.00
2023-12-18T03:56:59.972Z,1127.00
2023-12-18T03:57:59.959Z,1127.00
2023-12-18T03:58:59.978Z,1127.00
2023-12-18T03:59:59.957Z,1127.00
2023-12-18T04:01:00.117Z,1127.00
2023-12-18T04:01:59.987Z,1127.00
2023-12-18T04:03:00.011Z,1127.00
2023-12-18T04:04:00.180Z,1127.00
2023-12-18T04:05:00.106Z,1127.00
2023-12-18T04:06:00.086Z,1127.00
2023-12-18T04:07:00.175Z,1127.00
2023-12-18T04:08:00.147Z,1127.00
2023-12-18T04:09:00.172Z,1127.00
2023-12-18T04:10:00.253Z,1127.00
2023-12-18T04:11:00.205Z,1127.00
2023-12-18T04:12:00.273Z,1127.00
2023-12-18T04:13:00.271Z,1127.00
2023-12-18T04:14:00.285Z,1127.00
2023-12-18T04:15:00.294Z,1127.00
2023-12-18T04:16:00.902Z,1127.00
2023-12-18T04:17:00.333Z,1127.00
2023-12-18T04:18:00.424Z,1127.00
2023-12-18T04:19:00.499Z,1127.00
2023-12-18T04:20:00.368Z,1127.00
2023-12-18T04:21:00.396Z,1127.00
2023-12-18T04:22:00.423Z,1127.00
2023-12-18T04:23:00.437Z,1127.00
2023-12-18T04:24:00.485Z,1127.00
2023-12-18T04:25:00.488Z,1127.00
2023-12-18T04:26:00.501Z,1127.00
2023-12-18T04:27:00.514Z,1127.00
2023-12-18T04:28:00.537Z,1127.00
2023-12-18T04:29:00.553Z,1127.00
2023-12-18T04:30:00.606Z,1127.00
2023-12-18T04:31:00.662Z,1127.00
2023-12-18T04:32:00.620Z,1127.00
2023-12-18T04:33:00.723Z,1127.00
2023-12-18T04:34:00.753Z,1127.00
2023-12-18T04:35:00.680Z,1127.00
2023-12-18T04:36:00.720Z,1127.00
2023-12-18T04:37:02.720Z,1127.00
2023-12-18T04:38:00.813Z,1127.00
2023-12-18T04:39:00.786Z,1127.00
2023-12-18T04:40:00.804Z,1127.00
2023-12-18T04:41:00.814Z,1127.00
2023-12-18T04:42:00.838Z,1127.00
2023-12-18T04:43:00.859Z,1127.00
2023-12-18T04:44:00.879Z,1127.00
2023-12-18T04:45:00.903Z,1127.00
2023-12-18T04:46:08.306Z,1115.00
2023-12-18T04:47:08.198Z,1115.00
2023-12-18T04:48:08.291Z,1114.00
2023-12-18T04:49:08.405Z,1112.00
2023-12-18T04:50:08.314Z,1112.00
2023-12-18T04:51:08.219Z,1115.00
2023-12-18T04:52:08.238Z,1116.00
2023-12-18T04:53:08.208Z,1118.00
2023-12-18T04:54:08.228Z,1122.00
2023-12-18T04:55:08.236Z,1124.00
2023-12-18T04:56:08.204Z,1125.00
2023-12-18T04:57:08.304Z,1127.00
2023-12-18T04:58:08.210Z,1128.00
2023-12-18T04:59:08.213Z,1126.00
2023-12-18T05:00:08.275Z,1125.00
2023-12-18T05:01:08.401Z,1123.00
2023-12-18T05:02:08.214Z,1122.00
2023-12-18T05:03:08.310Z,1123.00
2023-12-18T05:04:08.332Z,1129.00
2023-12-18T05:05:08.266Z,1128.00
2023-12-18T05:06:08.230Z,1129.00
2023-12-18T05:07:08.212Z,1130.00
2023-12-18T05:08:08.222Z,1131.00
2023-12-18T05:09:08.255Z,1131.00
2023-12-18T05:10:08.234Z,1128.00
2023-12-18T05:11:08.239Z,1128.00
2023-12-18T05:12:08.289Z,1131.00
2023-12-18T05:13:08.222Z,1130.00
2023-12-18T05:14:08.238Z,1124.00
2023-12-18T05:15:10.820Z,1130.00
2023-12-18T05:16:08.226Z,1127.00
2023-12-18T05:17:08.301Z,1129.00
2023-12-18T05:18:08.422Z,1129.00
2023-12-18T05:19:08.319Z,1130.00
2023-12-18T05:20:08.247Z,1130.00
2023-12-18T05:21:08.253Z,1128.00
2023-12-18T05:22:08.226Z,1132.00
2023-12-18T05:23:08.236Z,1131.00
2023-12-18T05:24:08.264Z,1128.00
2023-12-18T05:25:08.234Z,1127.00
2023-12-18T05:26:08.221Z,1127.00
2023-12-18T05:27:08.257Z,1126.00
2023-12-18T05:28:08.234Z,1125.00
2023-12-18T05:29:08.246Z,1125.00
2023-12-18T05:30:08.323Z,1124.00
2023-12-18T05:31:08.281Z,1124.00
2023-12-18T05:32:08.251Z,1125.00
2023-12-18T05:33:08.380Z,1122.00
2023-12-18T05:34:08.367Z,1116.00
2023-12-18T05:35:08.252Z,1118.00
2023-12-18T05:36:08.263Z,1117.00
2023-12-18T05:37:08.255Z,1116.00
2023-12-18T05:38:08.254Z,1116.00
2023-12-18T05:39:08.354Z,1115.00
2023-12-18T05:40:08.254Z,1115.00
2023-12-18T05:41:08.255Z,1112.00
2023-12-18T05:42:09.696Z,1113.00
2023-12-18T05:43:08.272Z,1111.00
2023-12-18T05:44:08.256Z,1114.00
2023-12-18T05:45:08.435Z,1120.00
2023-12-18T05:46:08.269Z,1120.00
2023-12-18T05:47:08.275Z,1122.00
2023-12-18T05:48:08.400Z,1122.00
2023-12-18T05:49:08.405Z,1122.00
2023-12-18T05:50:08.352Z,1126.00
2023-12-18T05:51:08.291Z,1126.00
2023-12-18T05:52:08.263Z,1121.00
2023-12-18T05:53:08.280Z,1120.00
2023-12-18T05:54:08.292Z,1120.00
2023-12-18T05:55:09.996Z,1121.00
2023-12-18T05:56:08.275Z,1123.00
2023-12-18T05:57:08.310Z,1124.00
2023-12-18T05:58:08.263Z,1122.00
2023-12-18T05:59:08.275Z,1124.00
2023-12-18T06:00:08.351Z,1122.00
2023-12-18T06:01:08.406Z,1121.00
2023-12-18T06:02:08.277Z,1121.00
2023-12-18T06:03:08.396Z,1119.00
2023-12-18T06:04:08.308Z,1119.00
2023-12-18T06:05:08.302Z,1118.00
2023-12-18T06:06:08.595Z,1119.00
2023-12-18T06:07:08.372Z,1118.00
2023-12-18T06:08:08.279Z,1118.00
2023-12-18T06:09:08.328Z,1119.00
2023-12-18T06:10:08.274Z,1119.00
2023-12-18T06:11:08.322Z,1118.00
2023-12-18T06:12:08.454Z,1118.00
2023-12-18T06:13:08.287Z,1117.00
2023-12-18T06:14:08.318Z,1117.00
2023-12-18T06:15:08.415Z,1117.00
2023-12-18T06:16:08.317Z,1118.00
2023-12-18T06:17:08.300Z,1116.00
2023-12-18T06:18:08.551Z,1114.00
2023-12-18T06:19:08.380Z,1117.00
2023-12-18T06:20:08.321Z,1117.00
2023-12-18T06:21:08.346Z,1121.00
2023-12-18T06:22:08.308Z,1122.00
2023-12-18T06:23:08.315Z,1120.00
2023-12-18T06:24:08.394Z,1120.00
2023-12-18T06:25:08.342Z,1116.00
2023-12-18T06:26:08.340Z,1115.00
2023-12-18T06:27:08.373Z,1114.00
2023-12-18T06:28:08.369Z,1115.00
2023-12-18T06:29:08.317Z,1115.00
2023-12-18T06:30:08.397Z,1115.00
2023-12-18T06:31:08.458Z,1118.00
2023-12-18T06:32:10.342Z,1115.00
2023-12-18T06:33:08.687Z,1108.00
2023-12-18T06:34:08.434Z,1101.00
2023-12-18T06:35:08.556Z,1272.00
2023-12-18T06:36:08.341Z,1331.00
2023-12-18T06:37:08.327Z,1318.00
2023-12-18T06:38:08.311Z,1322.00
2023-12-18T06:39:09.415Z,1473.00
2023-12-18T06:40:08.873Z,1431.00
2023-12-18T06:41:08.485Z,1283.00
2023-12-18T06:42:08.607Z,1408.00
2023-12-18T06:43:08.591Z,1529.00
2023-12-18T06:44:08.639Z,1514.00
2023-12-18T06:45:08.891Z,1620.00
2023-12-18T06:46:08.825Z,1626.00
2023-12-18T06:47:08.806Z,1580.00
2023-12-18T06:48:08.927Z,1555.00
2023-12-18T06:49:09.021Z,1535.00
2023-12-18T06:50:09.360Z,1527.00
2023-12-18T06:51:08.978Z,1520.00
2023-12-18T06:52:08.993Z,1512.00
2023-12-18T06:53:09.032Z,1511.00
2023-12-18T06:54:09.088Z,1508.00
2023-12-18T06:55:09.101Z,1509.00
2023-12-18T06:56:09.172Z,1511.00
2023-12-18T06:57:09.228Z,1509.00
2023-12-18T06:58:09.283Z,1512.00
2023-12-18T06:59:09.320Z,1511.00
2023-12-18T07:00:09.957Z,1512.00
2023-12-18T07:01:09.617Z,1512.00
2023-12-18T07:02:09.515Z,1515.00
2023-12-18T07:03:09.672Z,1515.00
2023-12-18T07:04:09.771Z,1517.00
2023-12-18T07:05:09.943Z,1515.00
2023-12-18T07:06:09.832Z,1516.00
2023-12-18T07:07:09.846Z,1516.00
2023-12-18T07:08:09.912Z,1517.00
2023-12-18T07:09:10.024Z,1515.00
2023-12-18T07:10:10.480Z,1517.00
2023-12-18T07:11:10.110Z,1515.00
2023-12-18T07:12:10.235Z,1512.00
2023-12-18T07:13:10.255Z,1511.00
2023-12-18T07:14:10.298Z,1508.00
2023-12-18T07:15:10.383Z,1506.00
2023-12-18T07:16:10.503Z,1507.00
2023-12-18T07:17:10.422Z,1506.00
2023-12-18T07:18:10.619Z,1506.00
2023-12-18T07:19:10.655Z,1506.00
2023-12-18T07:20:10.867Z,1506.00
2023-12-18T07:21:10.674Z,1506.00
2023-12-18T07:22:10.674Z,1505.00
2023-12-18T07:23:10.651Z,1504.00
2023-12-18T07:24:10.734Z,1503.00
2023-12-18T07:25:10.737Z,1506.00
2023-12-18T07:26:10.690Z,1520.00
2023-12-18T07:27:10.728Z,1458.00
2023-12-18T07:28:10.735Z,1469.00
2023-12-18T07:29:10.746Z,1475.00
2023-12-18T07:30:10.873Z,1478.00
2023-12-18T07:31:10.861Z,1481.00
2023-12-18T07:32:10.814Z,1482.00
2023-12-18T07:33:11.046Z,1487.00
2023-12-18T07:34:10.924Z,1488.00
2023-12-18T07:35:10.904Z,1529.00
2023-12-18T07:36:10.871Z,1527.00
2023-12-18T07:37:10.882Z,1534.00
2023-12-18T07:38:10.910Z,1557.00
2023-12-18T07:39:10.975Z,1596.00
2023-12-18T07:40:11.386Z,1653.00
2023-12-18T07:41:11.085Z,1691.00
2023-12-18T07:42:11.222Z,1767.00
2023-12-18T07:43:11.224Z,1802.00
2023-12-18T07:44:11.320Z,1824.00
2023-12-18T07:45:11.432Z,1839.00
2023-12-18T07:46:11.358Z,1863.00
2023-12-18T07:47:11.387Z,1877.00
2023-12-18T07:48:11.569Z,1889.00
2023-12-18T07:49:11.540Z,1933.00
2023-12-18T07:50:11.925Z,1974.00
2023-12-18T07:51:11.539Z,1987.00
2023-12-18T07:52:11.529Z,2020.00
2023-12-18T07:53:11.483Z,2086.00
2023-12-18T07:54:11.524Z,2123.00
2023-12-18T07:55:11.904Z,2136.00
2023-12-18T07:56:11.520Z,2157.00
2023-12-18T07:57:11.569Z,2185.00
2023-12-18T07:58:11.595Z,2194.00
2023-12-18T07:59:11.603Z,2202.00
2023-12-18T08:00:11.793Z,2214.00
2023-12-18T08:01:11.856Z,2254.00
2023-12-18T08:02:11.821Z,2283.00
2023-12-18T08:03:11.974Z,2338.00
2023-12-18T08:04:12.995Z,2369.00
2023-12-18T08:05:12.044Z,2407.00
2023-12-18T08:06:12.132Z,2419.00
2023-12-18T08:07:12.143Z,2446.00
2023-12-18T08:08:12.199Z,2485.00
2023-12-18T08:09:12.269Z,2494.00
2023-12-18T08:10:12.389Z,2521.00
2023-12-18T08:11:12.407Z,2559.00
2023-12-18T08:12:12.479Z,2565.00
2023-12-18T08:13:12.509Z,2575.00
2023-12-18T08:14:12.532Z,2597.00
2023-12-18T08:15:12.991Z,2624.00
2023-12-18T08:16:12.650Z,2639.00
2023-12-18T08:17:12.698Z,2663.00
2023-12-18T08:18:12.967Z,2808.00
2023-12-18T08:19:12.873Z,2820.00
2023-12-18T08:20:12.942Z,2824.00
2023-12-18T08:21:12.953Z,2892.00
2023-12-18T08:22:12.898Z,2915.00
2023-12-18T08:23:12.952Z,2932.00
2023-12-18T08:24:13.033Z,2946.00
2023-12-18T08:25:13.440Z,2962.00
2023-12-18T08:26:13.076Z,2990.00
2023-12-18T08:27:13.217Z,3057.00
2023-12-18T08:28:13.213Z,3085.00
2023-12-18T08:29:13.162Z,3085.00
2023-12-18T08:30:13.522Z,3087.00
2023-12-18T08:31:14.099Z,3117.00
2023-12-18T08:32:13.272Z,3216.00
2023-12-18T08:33:13.439Z,3219.00
2023-12-18T08:34:13.398Z,3231.00
2023-12-18T08:35:13.446Z,3242.00
2023-12-18T08:36:13.501Z,3292.00
2023-12-18T08:37:13.414Z,3124.00
2023-12-18T08:38:13.454Z,3120.00
2023-12-18T08:39:13.639Z,2975.00
2023-12-18T08:40:13.964Z,2970.00
2023-12-18T08:41:13.581Z,2756.00
2023-12-18T08:42:13.604Z,2317.00
2023-12-18T08:43:13.645Z,2281.00
2023-12-18T08:44:13.652Z,2281.00
2023-12-18T08:45:13.980Z,2283.00
2023-12-18T08:46:13.802Z,2367.00
2023-12-18T08:47:13.892Z,2332.00
2023-12-18T08:48:14.083Z,2307.00
2023-12-18T08:49:15.078Z,2291.00
2023-12-18T08:50:14.936Z,2263.00
2023-12-18T08:51:15.924Z,2245.00
2023-12-18T08:52:13.983Z,2245.00
2023-12-18T08:53:14.002Z,2245.00
2023-12-18T08:54:14.053Z,2249.00
2023-12-18T08:55:13.999Z,2259.00
2023-12-18T08:56:14.004Z,2252.00
2023-12-18T08:57:14.047Z,2234.00
2023-12-18T08:58:14.007Z,2246.00
2023-12-18T08:59:14.009Z,2254.00
2023-12-18T09:00:14.049Z,2258.00
2023-12-18T09:01:14.173Z,2256.00
2023-12-18T09:02:14.006Z,2279.00
2023-12-18T09:03:14.077Z,2301.00
2023-12-18T09:04:14.073Z,2324.00
2023-12-18T09:05:16.320Z,2338.00
2023-12-18T09:06:14.080Z,2290.00
2023-12-18T09:07:14.075Z,2229.00
2023-12-18T09:08:14.077Z,2226.00
2023-12-18T09:09:14.119Z,2209.00
2023-12-18T09:10:14.442Z,2230.00
2023-12-18T09:11:14.188Z,2229.00
2023-12-18T09:12:14.315Z,2216.00
2023-12-18T09:13:14.226Z,2130.00
2023-12-18T09:14:14.254Z,2103.00
2023-12-18T09:15:14.357Z,2025.00
2023-12-18T09:16:14.381Z,2020.00
2023-12-18T09:17:14.400Z,2020.00
2023-12-18T09:18:14.601Z,2024.00
2023-12-18T09:19:14.581Z,2019.00
2023-12-18T09:20:14.562Z,1981.00
2023-12-18T09:21:14.659Z,1991.00
2023-12-18T09:22:14.641Z,1987.00
2023-12-18T09:23:14.705Z,1828.00
2023-12-18T09:24:14.757Z,1952.00
2023-12-18T09:25:14.982Z,1950.00
2023-12-18T09:26:14.876Z,1876.00
2023-12-18T09:27:14.941Z,1869.00
2023-12-18T09:28:14.968Z,1845.00
2023-12-18T09:29:15.062Z,1818.00
2023-12-18T09:30:16.083Z,1803.00
2023-12-18T09:31:15.206Z,1784.00
2023-12-18T09:32:15.227Z,1772.00
2023-12-18T09:33:15.427Z,1758.00
2023-12-18T09:34:15.483Z,1748.00
2023-12-18T09:35:15.535Z,1739.00
2023-12-18T09:36:15.454Z,1734.00
2023-12-18T09:37:15.497Z,1736.00
2023-12-18T09:38:15.580Z,1734.00
2023-12-18T09:39:15.693Z,1729.00
2023-12-18T09:40:15.927Z,1710.00
2023-12-18T09:41:15.751Z,1704.00
2023-12-18T09:42:18.679Z,1621.00
2023-12-18T09:43:15.813Z,1759.00
2023-12-18T09:44:15.843Z,1792.00
2023-12-18T09:45:15.962Z,1887.00
2023-12-18T09:46:15.810Z,1933.00
2023-12-18T09:47:15.827Z,1948.00
2023-12-18T09:48:17.402Z,1974.00
2023-12-18T09:49:15.918Z,2025.00
2023-12-18T09:50:15.929Z,2043.00
2023-12-18T09:51:15.848Z,2067.00
2023-12-18T09:52:15.815Z,2098.00
2023-12-18T09:53:15.813Z,2140.00
2023-12-18T09:54:17.242Z,2168.00
2023-12-18T09:55:15.840Z,2190.00
2023-12-18T09:56:15.846Z,2204.00
2023-12-18T09:57:15.861Z,2259.00
2023-12-18T09:58:15.873Z,2294.00
2023-12-18T09:59:15.821Z,2315.00
2023-12-18T10:00:17.640Z,2330.00
2023-12-18T10:01:16.083Z,2360.00
2023-12-18T10:02:15.847Z,2429.00
2023-12-18T10:03:15.916Z,2434.00
2023-12-18T10:04:15.854Z,2447.00
2023-12-18T10:05:15.892Z,2475.00
2023-12-18T10:06:18.452Z,2492.00
2023-12-18T10:07:15.846Z,2647.00
2023-12-18T10:08:15.841Z,2587.00
2023-12-18T10:09:15.884Z,2595.00
2023-12-18T10:10:15.848Z,2617.00
2023-12-18T10:11:15.837Z,2662.00
2023-12-18T10:12:15.862Z,2743.00
2023-12-18T10:13:15.899Z,2730.00
2023-12-18T10:14:15.840Z,2738.00
2023-12-18T10:15:15.918Z,2747.00
2023-12-18T10:16:15.923Z,2764.00
2023-12-18T10:17:15.891Z,2783.00
2023-12-18T10:18:17.674Z,2808.00
2023-12-18T10:19:16.222Z,2826.00
2023-12-18T10:20:16.152Z,2860.00
2023-12-18T10:21:16.228Z,2884.00
2023-12-18T10:22:16.289Z,2906.00
2023-12-18T10:23:16.365Z,2960.00
2023-12-18T10:24:17.754Z,2967.00
2023-12-18T10:25:16.369Z,2998.00
2023-12-18T10:26:16.384Z,3041.00
2023-12-18T10:27:16.473Z,3068.00
2023-12-18T10:28:16.462Z,3086.00
2023-12-18T10:29:16.510Z,3125.00
2023-12-18T10:30:18.809Z,3154.00
2023-12-18T10:31:16.601Z,3168.00
2023-12-18T10:32:16.541Z,3190.00
2023-12-18T10:33:16.708Z,3221.00
2023-12-18T10:34:16.652Z,3239.00
2023-12-18T10:35:16.960Z,3243.00
2023-12-18T10:36:17.341Z,3250.00
2023-12-18T10:37:16.578Z,3270.00
2023-12-18T10:38:17.444Z,3289.00
2023-12-18T10:39:16.566Z,3319.00
2023-12-18T10:40:16.975Z,3373.00
2023-12-18T10:41:16.540Z,3395.00
2023-12-18T10:42:16.567Z,3431.00
2023-12-18T10:43:16.558Z,3441.00
2023-12-18T10:44:16.546Z,3450.00
2023-12-18T10:45:16.989Z,3472.00
2023-12-18T10:46:16.563Z,3492.00
2023-12-18T10:47:16.559Z,3508.00
2023-12-18T10:48:16.595Z,3530.00
2023-12-18T10:49:16.724Z,3584.00
2023-12-18T10:50:16.949Z,3599.00
2023-12-18T10:51:16.615Z,3609.00
2023-12-18T10:52:16.556Z,3631.00
2023-12-18T10:53:16.574Z,3666.00
2023-12-18T10:54:16.563Z,3679.00
2023-12-18T10:55:16.555Z,3614.00
2023-12-18T10:56:16.557Z,3606.00
2023-12-18T10:57:16.606Z,3601.00
2023-12-18T10:58:16.567Z,3611.00
2023-12-18T10:59:16.563Z,3628.00
2023-12-18T11:00:17.080Z,3676.00
2023-12-18T11:01:16.742Z,3690.00
2023-12-18T11:02:16.738Z,3706.00
2023-12-18T11:03:16.877Z,3715.00
2023-12-18T11:04:17.094Z,3725.00
2023-12-18T11:05:16.970Z,3772.00
2023-12-18T11:06:18.395Z,3811.00
2023-12-18T11:07:17.051Z,3792.00
2023-12-18T11:08:17.102Z,3793.00
2023-12-18T11:09:17.164Z,3812.00
2023-12-18T11:10:17.475Z,3811.00
2023-12-18T11:11:17.399Z,3816.00
2023-12-18T11:12:17.361Z,3858.00
2023-12-18T11:13:17.423Z,3898.00
2023-12-18T11:14:17.499Z,3918.00
2023-12-18T11:15:17.996Z,3932.00
2023-12-18T11:16:17.614Z,3939.00
2023-12-18T11:17:17.657Z,3946.00
2023-12-18T11:18:17.851Z,3959.00
2023-12-18T11:19:23.270Z,4056.00
2023-12-18T11:20:18.876Z,4045.00
2023-12-18T11:21:17.786Z,4092.00
2023-12-18T11:22:17.756Z,4124.00
2023-12-18T11:23:17.747Z,4144.00
2023-12-18T11:24:17.797Z,4675.00
2023-12-18T11:25:17.922Z,4391.00
2023-12-18T11:26:17.753Z,4415.00
2023-12-18T11:27:17.892Z,4404.00
2023-12-18T11:28:17.874Z,4432.00
2023-12-18T11:29:17.953Z,4432.00
2023-12-18T11:30:18.071Z,3981.00
2023-12-18T11:31:18.102Z,4208.00
2023-12-18T11:32:18.108Z,4262.00
2023-12-18T11:33:18.313Z,4256.00
2023-12-18T11:34:18.379Z,4107.00
2023-12-18T11:35:18.553Z,3909.00
2023-12-18T11:36:18.473Z,3900.00
2023-12-18T11:37:18.443Z,3883.00
2023-12-18T11:38:18.503Z,3803.00
2023-12-18T11:39:18.533Z,3781.00
2023-12-18T11:40:18.974Z,3770.00
2023-12-18T11:41:18.520Z,3754.00
2023-12-18T11:42:18.564Z,3727.00
2023-12-18T11:43:18.541Z,3709.00
2023-12-18T11:44:18.552Z,3694.00
2023-12-18T11:45:19.022Z,3688.00
2023-12-18T11:46:19.142Z,3676.00
2023-12-18T11:47:18.627Z,3666.00
2023-12-18T11:48:19.080Z,3654.00
2023-12-18T11:49:18.747Z,3645.00
2023-12-18T11:50:18.798Z,3640.00
2023-12-18T11:51:18.848Z,3631.00
2023-12-18T11:52:18.783Z,3623.00
2023-12-18T11:53:18.830Z,3611.00
2023-12-18T11:54:18.944Z,3594.00
2023-12-18T11:55:18.887Z,3578.00
2023-12-18T11:56:18.938Z,3562.00
2023-12-18T11:57:19.009Z,3539.00
2023-12-18T11:58:19.045Z,3522.00
2023-12-18T11:59:19.115Z,3511.00
2023-12-18T12:00:19.220Z,3492.00
2023-12-18T12:01:19.221Z,3483.00
2023-12-18T12:02:19.287Z,3471.00
2023-12-18T12:03:19.388Z,3459.00
2023-12-18T12:04:19.478Z,3447.00
2023-12-18T12:05:19.530Z,3448.00
2023-12-18T12:06:19.529Z,3441.00